Search for airport 
image banner adimage banner adimage banner ad
image banner ad

8PS5 - Hmc Hanger

Located in Hershey, United States

ICAO - 8PS5, IATA -

Data provided by Airmate  

General information

Coordinates: N40°15'43" W76°41'5"
Elevation is 421 feet MSL.
Magnetic variation is -10° East
View others Airports in Pennsylvania

Operational data

Special qualification required
Current time UTC:
Current local time:
Weather at : KMDT - Harrisburg Intl ( 10 km )
METAR: KMDT 091256Z 21006KT 10SM BKN100 OVC120 10/02 A3010 RMK AO2 SLP196 T01000017 $
TAF: KMDT 091131Z 0912/1012 30006KT P6SM BKN100 FM091600 19007KT 5SM -RA BR OVC025 FM100400 35007KT 3SM -RA BR BKN009 OVC018 FM101000 34008G16KT P6SM BKN015 OVC025
View NOTAMs / SUP AIP / TFR affecting this airport [VIEW]
Communications frequencies: [VIEW]

Runways:

Airport contact information

Address: Hershey United States

Satellite view of 8PS5